createdAt,value
2022-09-25T00:00:01.878Z,975.42
2022-09-25T00:01:01.882Z,975.38
2022-09-25T00:02:01.875Z,975.41
2022-09-25T00:03:01.832Z,975.42
2022-09-25T00:04:01.798Z,975.40
2022-09-25T00:05:01.794Z,975.44
2022-09-25T00:06:01.767Z,975.43
2022-09-25T00:07:01.748Z,975.41
2022-09-25T00:08:01.736Z,975.39
2022-09-25T00:09:01.724Z,975.42
2022-09-25T00:10:01.704Z,975.41
2022-09-25T00:11:01.697Z,975.39
2022-09-25T00:12:01.695Z,975.40
2022-09-25T00:13:01.664Z,975.31
2022-09-25T00:14:01.656Z,975.39
2022-09-25T00:15:01.636Z,975.37
2022-09-25T00:16:01.646Z,975.36
2022-09-25T00:17:01.703Z,975.33
2022-09-25T00:18:01.599Z,975.35
2022-09-25T00:19:01.588Z,975.40
2022-09-25T00:20:01.602Z,975.34
2022-09-25T00:21:01.573Z,975.30
2022-09-25T00:22:01.610Z,975.38
2022-09-25T00:23:02.543Z,975.36
2022-09-25T00:24:02.618Z,975.31
2022-09-25T00:25:01.498Z,975.39
2022-09-25T00:26:01.571Z,975.41
2022-09-25T00:27:01.545Z,975.39
2022-09-25T00:28:01.559Z,975.39
2022-09-25T00:29:01.584Z,975.40
2022-09-25T00:30:01.464Z,975.37
2022-09-25T00:31:01.533Z,975.41
2022-09-25T00:32:01.418Z,975.41
2022-09-25T00:33:01.411Z,975.36
2022-09-25T00:34:01.482Z,975.39
2022-09-25T00:35:01.379Z,975.44
2022-09-25T00:36:01.420Z,975.31
2022-09-25T00:37:01.399Z,975.35
2022-09-25T00:38:01.429Z,975.41
2022-09-25T00:39:01.418Z,975.40
2022-09-25T00:40:01.303Z,975.36
2022-09-25T00:41:01.355Z,975.32
2022-09-25T00:42:01.341Z,975.29
2022-09-25T00:43:01.341Z,975.32
2022-09-25T00:44:01.352Z,975.32
2022-09-25T00:45:01.307Z,975.33
2022-09-25T00:46:01.349Z,975.31
2022-09-25T00:47:01.203Z,975.33
2022-09-25T00:48:01.204Z,975.32
2022-09-25T00:49:01.296Z,975.28
2022-09-25T00:50:01.173Z,975.33
2022-09-25T00:51:01.171Z,975.25
2022-09-25T00:52:01.213Z,975.30
2022-09-25T00:53:01.143Z,975.24
2022-09-25T00:54:01.140Z,975.29
2022-09-25T00:55:01.126Z,975.21
2022-09-25T00:56:01.115Z,975.20
2022-09-25T00:57:01.103Z,975.23
2022-09-25T00:58:01.072Z,975.24
2022-09-25T00:59:01.044Z,975.21
2022-09-25T01:00:01.044Z,975.26
2022-09-25T01:01:01.079Z,975.19
2022-09-25T01:02:01.063Z,975.28
2022-09-25T01:03:01.083Z,975.14
2022-09-25T01:04:01.001Z,975.20
2022-09-25T01:05:00.976Z,975.20
2022-09-25T01:06:00.986Z,975.14
2022-09-25T01:07:00.954Z,975.13
2022-09-25T01:08:00.946Z,975.19
2022-09-25T01:09:00.936Z,975.19
2022-09-25T01:10:00.927Z,975.14
2022-09-25T01:11:00.906Z,975.18
2022-09-25T01:12:00.901Z,975.20
2022-09-25T01:13:00.878Z,975.21
2022-09-25T01:14:00.876Z,975.22
2022-09-25T01:15:00.846Z,975.19
2022-09-25T01:16:00.848Z,975.22
2022-09-25T01:17:00.861Z,975.19
2022-09-25T01:18:00.807Z,975.15
2022-09-25T01:19:00.801Z,975.15
2022-09-25T01:20:00.802Z,975.11
2022-09-25T01:21:00.778Z,975.14
2022-09-25T01:22:00.759Z,975.17
2022-09-25T01:23:00.738Z,975.14
2022-09-25T01:24:00.755Z,975.11
2022-09-25T01:25:00.719Z,975.19
2022-09-25T01:26:00.719Z,975.14
2022-09-25T01:27:00.686Z,975.12
2022-09-25T01:28:00.679Z,975.09
2022-09-25T01:29:00.669Z,975.08
2022-09-25T01:30:00.652Z,975.10
2022-09-25T01:31:00.691Z,975.06
2022-09-25T01:32:00.633Z,975.14
2022-09-25T01:33:00.619Z,975.06
2022-09-25T01:34:00.610Z,975.06
2022-09-25T01:35:00.596Z,975.06
2022-09-25T01:36:00.580Z,974.99
2022-09-25T01:37:00.568Z,975.04
2022-09-25T01:38:00.551Z,975.04
2022-09-25T01:39:00.549Z,975.01
2022-09-25T01:40:00.540Z,974.98
2022-09-25T01:41:00.600Z,975.02
2022-09-25T01:42:00.491Z,974.97
2022-09-25T01:43:00.483Z,975.02
2022-09-25T01:44:00.472Z,974.96
2022-09-25T01:45:00.473Z,974.92
2022-09-25T01:46:00.499Z,974.96
2022-09-25T01:47:00.450Z,974.95
2022-09-25T01:48:00.423Z,975.01
2022-09-25T01:49:00.410Z,974.98
2022-09-25T01:50:00.406Z,975.01
2022-09-25T01:51:00.403Z,975.00
2022-09-25T01:52:00.370Z,974.92
2022-09-25T01:53:00.353Z,974.97
2022-09-25T01:54:00.346Z,974.98
2022-09-25T01:55:00.323Z,974.97
2022-09-25T01:56:00.334Z,975.01
2022-09-25T01:57:00.314Z,975.01
2022-09-25T01:58:00.284Z,974.99
2022-09-25T01:59:00.292Z,974.99
2022-09-25T02:00:00.263Z,974.98
2022-09-25T02:01:00.374Z,974.96
2022-09-25T02:02:00.266Z,974.99
2022-09-25T02:03:00.292Z,974.92
2022-09-25T02:04:00.218Z,974.97
2022-09-25T02:05:00.223Z,974.95
2022-09-25T02:06:00.195Z,974.94
2022-09-25T02:07:00.169Z,974.97
2022-09-25T02:08:00.167Z,974.93
2022-09-25T02:09:00.153Z,974.95
2022-09-25T02:10:00.151Z,974.96
2022-09-25T02:11:00.137Z,974.95
2022-09-25T02:12:00.117Z,974.95
2022-09-25T02:13:00.124Z,974.86
2022-09-25T02:14:00.078Z,974.93
2022-09-25T02:15:00.058Z,975.00
2022-09-25T02:16:00.067Z,974.86
2022-09-25T02:17:00.101Z,974.87
2022-09-25T02:18:00.028Z,974.86
2022-09-25T02:19:00.013Z,974.90
2022-09-25T02:20:00.007Z,974.83
2022-09-25T02:21:00.006Z,974.83
2022-09-25T02:21:59.967Z,974.81
2022-09-25T02:22:59.948Z,974.87
2022-09-25T02:23:59.938Z,974.87
2022-09-25T02:24:59.937Z,974.86
2022-09-25T02:25:59.920Z,974.84
2022-09-25T02:26:59.900Z,974.88
2022-09-25T02:27:59.899Z,974.87
2022-09-25T02:28:59.883Z,974.83
2022-09-25T02:29:59.858Z,974.90
2022-09-25T02:30:59.925Z,974.87
2022-09-25T02:31:59.842Z,974.86
2022-09-25T02:32:59.842Z,974.83
2022-09-25T02:33:59.820Z,974.78
2022-09-25T02:34:59.865Z,974.83
2022-09-25T02:35:59.801Z,974.75
2022-09-25T02:36:59.782Z,974.78
2022-09-25T02:37:59.753Z,974.81
2022-09-25T02:38:59.758Z,974.82
2022-09-25T02:39:59.741Z,974.77
2022-09-25T02:40:59.777Z,974.80
2022-09-25T02:41:59.709Z,974.81
2022-09-25T02:42:59.693Z,974.81
2022-09-25T02:43:59.691Z,974.78
2022-09-25T02:44:59.673Z,974.84
2022-09-25T02:45:59.750Z,974.76
2022-09-25T02:46:59.652Z,974.77
2022-09-25T02:47:59.629Z,974.84
2022-09-25T02:48:59.640Z,974.90
2022-09-25T02:49:59.613Z,974.88
2022-09-25T02:50:59.605Z,974.94
2022-09-25T02:51:59.586Z,974.94
2022-09-25T02:52:59.573Z,974.93
2022-09-25T02:53:59.542Z,974.96
2022-09-25T02:54:59.543Z,974.96
2022-09-25T02:55:59.533Z,974.99
2022-09-25T02:57:03.788Z,975.03
2022-09-25T02:57:59.484Z,975.02
2022-09-25T02:58:59.496Z,975.05
2022-09-25T02:59:59.502Z,974.99
2022-09-25T03:00:59.487Z,974.98
2022-09-25T03:01:59.551Z,974.98
2022-09-25T03:02:59.545Z,975.07
2022-09-25T03:03:59.412Z,975.02
2022-09-25T03:04:59.418Z,975.03
2022-09-25T03:05:59.397Z,975.00
2022-09-25T03:06:59.393Z,975.01
2022-09-25T03:07:59.362Z,975.03
2022-09-25T03:08:59.366Z,975.05
2022-09-25T03:09:59.347Z,975.01
2022-09-25T03:10:59.347Z,974.96
2022-09-25T03:11:59.314Z,975.04
2022-09-25T03:12:59.299Z,974.96
2022-09-25T03:13:59.295Z,974.97
2022-09-25T03:14:59.296Z,974.98
2022-09-25T03:15:59.336Z,974.98
2022-09-25T03:16:59.389Z,974.91
2022-09-25T03:17:59.248Z,974.95
2022-09-25T03:18:59.240Z,974.95
2022-09-25T03:19:59.218Z,974.93
2022-09-25T03:20:59.208Z,974.94
2022-09-25T03:21:59.197Z,974.92
2022-09-25T03:22:59.180Z,974.99
2022-09-25T03:23:59.166Z,974.98
2022-09-25T03:24:59.172Z,974.94
2022-09-25T03:25:59.138Z,974.90
2022-09-25T03:26:59.137Z,974.92
2022-09-25T03:27:59.151Z,974.93
2022-09-25T03:28:59.131Z,974.91
2022-09-25T03:29:59.087Z,974.92
2022-09-25T03:30:59.129Z,974.93
2022-09-25T03:31:59.139Z,975.01
2022-09-25T03:32:59.060Z,974.93
2022-09-25T03:33:59.054Z,974.90
2022-09-25T03:34:59.056Z,974.94
2022-09-25T03:35:59.021Z,974.97
2022-09-25T03:36:59.070Z,974.95
2022-09-25T03:37:59.071Z,974.94
2022-09-25T03:38:59.020Z,974.96
2022-09-25T03:39:58.980Z,974.95
2022-09-25T03:40:59.088Z,975.00
2022-09-25T03:41:58.932Z,974.96
2022-09-25T03:42:58.922Z,974.95
2022-09-25T03:43:59.014Z,974.95
2022-09-25T03:45:19.912Z,974.85
2022-09-25T03:45:58.913Z,974.89
2022-09-25T03:46:58.923Z,974.90
2022-09-25T03:47:58.942Z,974.91
2022-09-25T03:48:58.951Z,974.92
2022-09-25T03:49:58.837Z,974.86
2022-09-25T04:03:39.780Z,974.87
2022-09-25T04:04:39.797Z,974.88
2022-09-25T04:05:39.730Z,974.83
2022-09-25T04:06:39.710Z,974.86
2022-09-25T04:07:39.700Z,974.83
2022-09-25T04:08:39.728Z,974.82
2022-09-25T04:09:39.746Z,974.81
2022-09-25T04:10:39.780Z,974.77
2022-09-25T04:11:39.660Z,974.79
2022-09-25T04:12:39.641Z,974.79
2022-09-25T04:13:39.634Z,974.82
2022-09-25T04:14:39.623Z,974.75
2022-09-25T04:15:39.712Z,974.74
2022-09-25T04:16:39.692Z,974.70
2022-09-25T04:17:39.574Z,974.72
2022-09-25T04:18:39.562Z,974.67
2022-09-25T04:19:39.550Z,974.74
2022-09-25T04:20:39.549Z,974.70
2022-09-25T04:21:39.511Z,974.64
2022-09-25T04:22:39.666Z,974.64
2022-09-25T04:23:39.514Z,974.62
2022-09-25T04:24:39.472Z,974.70
2022-09-25T04:25:40.472Z,974.73
2022-09-25T04:26:39.542Z,974.64
2022-09-25T04:27:39.445Z,974.70
2022-09-25T04:28:39.423Z,974.66
2022-09-25T04:29:39.461Z,974.65
2022-09-25T04:30:39.507Z,974.71
2022-09-25T04:31:40.434Z,974.66
2022-09-25T04:32:39.385Z,974.68
2022-09-25T04:33:39.399Z,974.74
2022-09-25T04:34:48.073Z,974.67
2022-09-25T04:35:46.858Z,974.74
2022-09-25T04:36:46.866Z,974.75
2022-09-25T04:37:46.815Z,974.76
2022-09-25T04:38:47.967Z,974.74
2022-09-25T04:39:48.136Z,974.74
2022-09-25T04:40:46.874Z,974.80
2022-09-25T04:41:46.759Z,974.74
2022-09-25T04:42:46.749Z,974.74
2022-09-25T04:43:47.905Z,974.71
2022-09-25T04:44:46.720Z,974.77
2022-09-25T04:45:48.435Z,974.75
2022-09-25T04:46:46.752Z,974.74
2022-09-25T04:48:48.529Z,974.71
2022-09-25T04:49:57.205Z,974.70
2022-09-25T04:50:56.012Z,974.75
2022-09-25T04:52:58.705Z,974.75
2022-09-25T04:53:58.725Z,974.79
2022-09-25T04:55:07.398Z,974.72
2022-09-25T04:56:08.716Z,974.73
2022-09-25T04:58:09.025Z,974.76
2022-09-25T04:59:16.514Z,974.77
2022-09-25T05:00:09.010Z,974.77
2022-09-25T05:02:19.231Z,974.75
2022-09-25T05:04:29.413Z,974.76
2022-09-25T05:05:54.630Z,974.75
2022-09-25T05:06:29.382Z,974.73
2022-09-25T05:07:29.422Z,974.79
2022-09-25T05:08:29.436Z,974.78
2022-09-25T05:09:29.433Z,974.81
2022-09-25T05:10:29.371Z,974.75
2022-09-25T05:11:29.322Z,974.78
2022-09-25T05:12:29.362Z,974.77
2022-09-25T05:13:29.303Z,974.79
2022-09-25T05:14:29.293Z,974.73
2022-09-25T05:15:29.304Z,974.67
2022-09-25T05:16:29.372Z,974.68
2022-09-25T05:17:29.273Z,974.66
2022-09-25T05:18:29.315Z,974.66
2022-09-25T05:19:29.214Z,974.63
2022-09-25T05:20:29.300Z,974.65
2022-09-25T05:21:29.244Z,974.65
2022-09-25T05:22:29.195Z,974.66
2022-09-25T05:23:29.174Z,974.71
2022-09-25T05:24:29.264Z,974.63
2022-09-25T05:25:29.186Z,974.59
2022-09-25T05:26:29.145Z,974.65
2022-09-25T05:27:29.155Z,974.65
2022-09-25T05:28:29.116Z,974.63
2022-09-25T05:29:29.183Z,974.60
2022-09-25T05:30:29.113Z,974.66
2022-09-25T05:31:29.183Z,974.57
2022-09-25T05:32:29.097Z,974.59
2022-09-25T05:33:29.037Z,974.61
2022-09-25T05:34:29.042Z,974.61
2022-09-25T05:35:29.056Z,974.60
2022-09-25T05:36:28.991Z,974.63
2022-09-25T05:37:30.058Z,974.63
2022-09-25T05:38:29.029Z,974.65
2022-09-25T05:39:28.958Z,974.69
2022-09-25T05:40:29.057Z,974.74
2022-09-25T05:41:28.958Z,974.73
2022-09-25T05:42:28.929Z,974.75
2022-09-25T05:43:28.971Z,974.76
2022-09-25T05:44:30.022Z,974.74
2022-09-25T05:45:29.021Z,974.76
2022-09-25T05:46:28.997Z,974.75
2022-09-25T05:47:28.885Z,974.77
2022-09-25T05:48:28.900Z,974.78
2022-09-25T05:49:28.841Z,974.75
2022-09-25T05:50:29.865Z,974.74
2022-09-25T05:51:28.946Z,974.70
2022-09-25T05:52:28.807Z,974.77
2022-09-25T05:53:49.828Z,974.71
2022-09-25T05:54:28.769Z,974.77
2022-09-25T05:55:28.764Z,974.75
2022-09-25T05:56:28.758Z,974.78
2022-09-25T05:57:28.732Z,974.71
2022-09-25T05:58:28.731Z,974.72
2022-09-25T05:59:28.712Z,974.67
2022-09-25T06:00:28.743Z,974.72
2022-09-25T06:01:28.711Z,974.66
2022-09-25T06:02:28.741Z,974.57
2022-09-25T06:03:28.652Z,974.73
2022-09-25T06:04:28.641Z,974.66
2022-09-25T06:05:28.645Z,974.67
2022-09-25T06:06:28.622Z,974.71
2022-09-25T06:07:28.603Z,974.64
2022-09-25T06:08:28.593Z,974.67
2022-09-25T06:09:28.564Z,974.68
2022-09-25T06:10:28.625Z,974.72
2022-09-25T06:11:28.574Z,974.67
2022-09-25T06:12:28.533Z,974.75
2022-09-25T06:13:28.524Z,974.69
2022-09-25T06:14:28.525Z,974.80
2022-09-25T06:15:28.521Z,974.71
2022-09-25T06:16:28.517Z,974.75
2022-09-25T06:17:28.465Z,974.78
2022-09-25T06:18:28.452Z,974.79
2022-09-25T06:19:28.438Z,974.81
2022-09-25T06:20:28.515Z,974.81
2022-09-25T06:21:28.415Z,974.75
2022-09-25T06:22:28.403Z,974.79
2022-09-25T06:23:28.383Z,974.80
2022-09-25T06:24:28.376Z,974.79
2022-09-25T06:25:28.364Z,974.81
2022-09-25T06:26:28.337Z,974.78
2022-09-25T06:27:29.337Z,974.72
2022-09-25T06:28:28.335Z,974.74
2022-09-25T06:29:28.305Z,974.74
2022-09-25T06:30:28.369Z,974.75
2022-09-25T06:31:28.306Z,974.72
2022-09-25T06:32:28.290Z,974.74
2022-09-25T06:33:28.254Z,974.71
2022-09-25T06:34:28.249Z,974.70
2022-09-25T06:35:28.238Z,974.72
2022-09-25T06:36:28.218Z,974.74
2022-09-25T06:37:28.204Z,974.71
2022-09-25T06:38:28.207Z,974.73
2022-09-25T06:39:28.187Z,974.71
2022-09-25T06:40:28.360Z,974.74
2022-09-25T06:41:28.159Z,974.69
2022-09-25T06:42:28.153Z,974.69
2022-09-25T06:43:28.137Z,974.67
2022-09-25T06:44:28.120Z,974.65
2022-09-25T06:45:28.119Z,974.68
2022-09-25T06:46:28.126Z,974.71
2022-09-25T06:47:28.079Z,974.71
2022-09-25T06:48:28.076Z,974.69
2022-09-25T06:49:28.051Z,974.70
2022-09-25T06:50:28.060Z,974.76
2022-09-25T06:51:28.019Z,974.76
2022-09-25T06:52:28.026Z,974.80
2022-09-25T06:53:28.000Z,974.80
2022-09-25T06:54:28.001Z,974.81
2022-09-25T06:55:27.983Z,974.80
2022-09-25T06:56:27.972Z,974.76
2022-09-25T06:57:27.957Z,974.75
2022-09-25T06:58:27.933Z,974.75
2022-09-25T06:59:27.941Z,974.77
2022-09-25T07:00:27.934Z,974.74
2022-09-25T07:01:27.992Z,974.73
2022-09-25T07:02:28.048Z,974.72
2022-09-25T07:03:27.886Z,974.75
2022-09-25T07:04:28.872Z,974.81
2022-09-25T07:05:27.869Z,974.83
2022-09-25T07:06:27.834Z,974.80
2022-09-25T07:07:27.825Z,974.82
2022-09-25T07:08:27.830Z,974.80
2022-09-25T07:09:27.803Z,974.77
2022-09-25T07:10:27.802Z,974.82
2022-09-25T07:11:27.773Z,974.86
2022-09-25T07:12:27.765Z,974.81
2022-09-25T07:13:27.745Z,974.81
2022-09-25T07:14:28.743Z,974.83
2022-09-25T07:15:27.735Z,974.86
2022-09-25T07:16:27.736Z,974.89
2022-09-25T07:17:27.684Z,974.87
2022-09-25T07:18:27.682Z,974.89
2022-09-25T07:19:27.945Z,974.89
2022-09-25T07:20:27.665Z,974.91
2022-09-25T07:21:27.646Z,974.95
2022-09-25T07:22:27.626Z,974.91
2022-09-25T07:23:27.613Z,974.88
2022-09-25T07:24:27.625Z,974.90
2022-09-25T07:25:27.602Z,974.84
2022-09-25T07:26:27.583Z,974.91
2022-09-25T07:27:27.557Z,974.93
2022-09-25T07:28:27.557Z,974.97
2022-09-25T07:29:27.555Z,974.93
2022-09-25T07:30:27.546Z,974.92
2022-09-25T07:31:27.553Z,974.93
2022-09-25T07:32:27.510Z,974.88
2022-09-25T07:33:27.498Z,974.89
2022-09-25T07:34:27.478Z,974.90
2022-09-25T07:35:27.476Z,974.93
2022-09-25T07:36:27.456Z,974.89
2022-09-25T07:37:27.463Z,974.92
2022-09-25T07:38:27.437Z,974.84
2022-09-25T07:39:27.421Z,974.82
2022-09-25T07:40:27.449Z,974.79
2022-09-25T07:41:27.398Z,974.84
2022-09-25T07:42:27.389Z,974.79
2022-09-25T07:43:27.357Z,974.81
2022-09-25T07:44:30.228Z,974.82
2022-09-25T07:45:28.350Z,974.82
2022-09-25T07:46:27.389Z,974.80
2022-09-25T07:47:27.319Z,974.80
2022-09-25T07:48:27.299Z,974.81
2022-09-25T07:49:27.289Z,974.71
2022-09-25T07:50:28.289Z,974.81
2022-09-25T07:51:27.268Z,974.83
2022-09-25T07:52:27.250Z,974.84
2022-09-25T07:53:27.230Z,974.87
2022-09-25T07:54:27.228Z,974.78
2022-09-25T07:55:27.224Z,974.84
2022-09-25T07:56:27.201Z,974.81
2022-09-25T07:57:27.189Z,974.82
2022-09-25T07:58:27.176Z,974.79
2022-09-25T07:59:27.165Z,974.79
2022-09-25T08:00:28.153Z,974.79
2022-09-25T08:01:28.179Z,974.80
2022-09-25T08:02:27.199Z,974.81
2022-09-25T08:03:27.121Z,974.75
2022-09-25T08:04:27.091Z,974.76
2022-09-25T08:05:27.099Z,974.76
2022-09-25T08:06:27.087Z,974.78
2022-09-25T08:07:27.043Z,974.80
2022-09-25T08:08:27.072Z,974.84
2022-09-25T08:09:27.032Z,974.79
2022-09-25T08:10:27.034Z,974.81
2022-09-25T08:11:27.005Z,974.83
2022-09-25T08:12:26.998Z,974.77
2022-09-25T08:13:26.984Z,974.81
2022-09-25T08:14:27.259Z,974.79
2022-09-25T08:15:27.030Z,974.75
2022-09-25T08:16:27.012Z,974.74
2022-09-25T08:17:26.922Z,974.75
2022-09-25T08:18:26.915Z,974.76
2022-09-25T08:19:26.895Z,974.83
2022-09-25T08:20:26.916Z,974.85
2022-09-25T08:21:26.862Z,974.86
2022-09-25T08:22:26.907Z,974.85
2022-09-25T08:23:26.846Z,974.85
2022-09-25T08:24:26.839Z,974.83
2022-09-25T08:25:26.824Z,974.75
2022-09-25T08:26:26.808Z,974.84
2022-09-25T08:27:26.797Z,974.81
2022-09-25T08:28:26.784Z,974.74
2022-09-25T08:29:26.769Z,974.82
2022-09-25T08:30:26.766Z,974.72
2022-09-25T08:31:26.837Z,974.79
2022-09-25T08:32:26.744Z,974.82
2022-09-25T08:33:26.709Z,974.82
2022-09-25T08:34:42.242Z,974.80
2022-09-25T08:35:27.724Z,974.81
2022-09-25T08:36:26.690Z,974.85
2022-09-25T08:37:26.658Z,974.76
2022-09-25T08:38:26.671Z,974.87
2022-09-25T08:39:26.665Z,974.82
2022-09-25T08:40:26.724Z,974.82
2022-09-25T08:41:26.618Z,974.84
2022-09-25T08:42:26.589Z,974.86
2022-09-25T08:43:26.590Z,974.81
2022-09-25T08:44:26.579Z,974.77
2022-09-25T08:45:26.571Z,974.77
2022-09-25T08:46:26.578Z,974.79
2022-09-25T08:47:26.530Z,974.80
2022-09-25T08:48:26.523Z,974.80
2022-09-25T08:49:26.514Z,974.75
2022-09-25T08:50:26.522Z,974.78
2022-09-25T08:51:26.481Z,974.75
2022-09-25T08:52:26.451Z,974.69
2022-09-25T08:53:26.462Z,974.69
2022-09-25T08:54:26.443Z,974.71
2022-09-25T08:55:26.443Z,974.70
2022-09-25T08:56:26.411Z,974.68
2022-09-25T08:57:26.400Z,974.68
2022-09-25T08:58:26.391Z,974.68
2022-09-25T08:59:26.381Z,974.63
2022-09-25T09:00:26.373Z,974.70
2022-09-25T09:01:26.377Z,974.67
2022-09-25T09:02:26.402Z,974.64
2022-09-25T09:03:27.314Z,974.64
2022-09-25T09:04:26.303Z,974.70
2022-09-25T09:05:26.312Z,974.69
2022-09-25T09:06:26.296Z,974.69
2022-09-25T09:07:27.898Z,974.68
2022-09-25T09:08:26.254Z,974.68
2022-09-25T09:09:26.259Z,974.66
2022-09-25T09:10:26.244Z,974.66
2022-09-25T09:11:26.225Z,974.61
2022-09-25T09:12:26.207Z,974.60
2022-09-25T09:13:26.213Z,974.65
2022-09-25T09:14:26.186Z,974.54
2022-09-25T09:15:26.246Z,974.56
2022-09-25T09:16:26.156Z,974.51
2022-09-25T09:17:26.134Z,974.56
2022-09-25T09:18:26.137Z,974.55
2022-09-25T09:19:26.126Z,974.54
2022-09-25T09:20:26.102Z,974.62
2022-09-25T09:21:26.111Z,974.58
2022-09-25T09:22:26.076Z,974.59
2022-09-25T09:23:26.091Z,974.60
2022-09-25T09:24:26.047Z,974.55
2022-09-25T09:25:26.142Z,974.58
2022-09-25T09:26:26.062Z,974.59
2022-09-25T09:27:26.013Z,974.56
2022-09-25T09:28:26.077Z,974.53
2022-09-25T09:29:27.026Z,974.61
2022-09-25T09:30:25.997Z,974.62
2022-09-25T09:31:26.019Z,974.68
2022-09-25T09:32:25.949Z,974.65
2022-09-25T09:33:25.939Z,974.65
2022-09-25T09:34:40.956Z,974.72
2022-09-25T09:35:32.855Z,974.65
2022-09-25T09:36:26.889Z,974.60
2022-09-25T09:37:25.881Z,974.60
2022-09-25T09:38:25.871Z,974.61
2022-09-25T09:39:25.851Z,974.57
2022-09-25T09:40:25.930Z,974.57
2022-09-25T09:41:25.831Z,974.57
2022-09-25T09:42:25.842Z,974.55
2022-09-25T09:43:25.800Z,974.56
2022-09-25T09:44:25.800Z,974.60
2022-09-25T09:45:25.800Z,974.51
2022-09-25T09:46:25.887Z,974.52
2022-09-25T09:47:25.749Z,974.53
2022-09-25T10:03:39.260Z,974.35
2022-09-25T10:04:39.260Z,974.27
2022-09-25T10:05:40.237Z,974.29
2022-09-25T10:06:39.235Z,974.27
2022-09-25T10:07:39.232Z,974.29
2022-09-25T10:08:39.210Z,974.27
2022-09-25T10:09:39.197Z,974.25
2022-09-25T10:10:39.178Z,974.28
2022-09-25T10:11:39.168Z,974.20
2022-09-25T10:12:39.159Z,974.21
2022-09-25T10:13:39.129Z,974.19
2022-09-25T10:14:39.159Z,974.20
2022-09-25T10:15:39.141Z,974.20
2022-09-25T10:16:39.115Z,974.09
2022-09-25T10:17:39.092Z,974.07
2022-09-25T10:18:39.090Z,974.10
2022-09-25T10:19:39.060Z,974.11
2022-09-25T10:20:39.041Z,974.10
2022-09-25T10:21:39.041Z,974.04
2022-09-25T10:22:39.020Z,974.06
2022-09-25T10:23:39.009Z,974.10
2022-09-25T10:24:39.025Z,974.18
2022-09-25T10:25:38.988Z,974.13
2022-09-25T10:26:39.962Z,974.16
2022-09-25T10:27:38.952Z,974.02
2022-09-25T10:28:38.948Z,974.05
2022-09-25T10:29:38.932Z,974.09
2022-09-25T10:30:39.977Z,974.07
2022-09-25T10:31:39.893Z,974.09
2022-09-25T10:32:38.911Z,974.10
2022-09-25T10:33:38.883Z,974.07
2022-09-25T10:34:38.863Z,974.01
2022-09-25T10:35:39.858Z,974.03
2022-09-25T10:36:38.886Z,973.98
2022-09-25T10:37:38.815Z,973.94
2022-09-25T10:38:38.834Z,973.95
2022-09-25T10:39:44.760Z,973.90
2022-09-25T10:40:39.852Z,973.93
2022-09-25T10:41:38.822Z,973.92
2022-09-25T10:42:38.769Z,973.97
2022-09-25T10:43:38.753Z,973.99
2022-09-25T10:44:38.747Z,973.98
2022-09-25T10:45:38.757Z,973.91
2022-09-25T10:46:38.802Z,973.97
2022-09-25T10:47:38.699Z,973.99
2022-09-25T10:48:38.683Z,973.99
2022-09-25T10:49:38.688Z,973.99
2022-09-25T10:50:38.680Z,973.95
2022-09-25T10:51:38.647Z,973.95
2022-09-25T10:52:38.641Z,973.98
2022-09-25T10:53:38.608Z,973.94
2022-09-25T10:54:44.404Z,973.89
2022-09-25T10:55:39.608Z,973.95
2022-09-25T10:56:38.580Z,973.87
2022-09-25T10:57:38.723Z,973.96
2022-09-25T10:58:39.559Z,974.03
2022-09-25T10:59:38.529Z,973.95
2022-09-25T11:00:38.529Z,973.97
2022-09-25T11:01:38.668Z,973.98
2022-09-25T11:02:38.582Z,973.95
2022-09-25T11:03:38.502Z,973.90
2022-09-25T11:04:38.490Z,973.97
2022-09-25T11:05:38.472Z,973.95
2022-09-25T11:06:38.457Z,973.91
2022-09-25T11:07:38.422Z,973.95
2022-09-25T11:08:38.421Z,973.95
2022-09-25T11:09:38.410Z,973.98
2022-09-25T11:10:38.445Z,973.95
2022-09-25T11:11:38.383Z,973.98
2022-09-25T11:12:38.374Z,974.00
2022-09-25T11:13:38.354Z,973.98
2022-09-25T11:14:38.351Z,973.94
2022-09-25T11:15:38.376Z,973.92
2022-09-25T11:16:38.357Z,973.84
2022-09-25T11:17:38.318Z,973.91
2022-09-25T11:18:38.314Z,973.84
2022-09-25T11:19:38.287Z,973.86
2022-09-25T11:20:38.293Z,973.87
2022-09-25T11:21:38.267Z,973.84
2022-09-25T11:22:38.246Z,973.79
2022-09-25T11:23:39.235Z,973.85
2022-09-25T11:24:38.212Z,973.81
2022-09-25T11:25:38.223Z,973.82
2022-09-25T11:26:38.194Z,973.81
2022-09-25T11:27:38.177Z,973.81
2022-09-25T11:28:38.166Z,973.79
2022-09-25T11:29:38.147Z,973.83
2022-09-25T11:30:38.208Z,973.81
2022-09-25T11:31:38.163Z,973.74
2022-09-25T11:32:38.106Z,973.73
2022-09-25T11:33:38.116Z,973.75
2022-09-25T11:34:38.087Z,973.77
2022-09-25T11:35:38.099Z,973.71
2022-09-25T11:36:38.066Z,973.70
2022-09-25T11:37:38.059Z,973.71
2022-09-25T11:38:38.072Z,973.74
2022-09-25T11:39:38.009Z,973.62
2022-09-25T11:40:38.059Z,973.65
2022-09-25T11:41:38.011Z,973.57
2022-09-25T11:42:37.992Z,973.62
2022-09-25T11:43:37.979Z,973.66
2022-09-25T11:44:37.963Z,973.62
2022-09-25T11:45:37.963Z,973.70
2022-09-25T11:46:37.935Z,973.61
2022-09-25T11:47:37.913Z,973.57
2022-09-25T11:48:37.900Z,973.57
2022-09-25T11:49:38.892Z,973.62
2022-09-25T11:50:37.889Z,973.56
2022-09-25T11:51:37.859Z,973.54
2022-09-25T11:52:37.848Z,973.62
2022-09-25T11:53:37.844Z,973.55
2022-09-25T11:54:38.202Z,973.63
2022-09-25T11:55:42.811Z,973.56
2022-09-25T11:56:38.793Z,973.62
2022-09-25T11:57:37.785Z,973.70
2022-09-25T11:58:37.772Z,973.64
2022-09-25T11:59:37.782Z,973.60
2022-09-25T12:00:37.760Z,973.62
2022-09-25T12:01:37.949Z,973.62
2022-09-25T12:02:37.785Z,973.65
2022-09-25T12:03:37.723Z,973.64
2022-09-25T12:04:41.326Z,973.70
2022-09-25T12:05:37.684Z,973.64
2022-09-25T12:06:37.675Z,973.78
2022-09-25T12:07:37.700Z,973.73
2022-09-25T12:08:37.649Z,973.78
2022-09-25T12:09:37.644Z,973.71
2022-09-25T12:10:37.634Z,973.72
2022-09-25T12:11:37.627Z,973.72
2022-09-25T12:12:37.587Z,973.68
2022-09-25T12:13:37.577Z,973.70
2022-09-25T12:14:37.575Z,973.75
2022-09-25T12:15:37.566Z,973.68
2022-09-25T12:16:37.584Z,973.66
2022-09-25T12:17:37.550Z,973.70
2022-09-25T12:18:37.518Z,973.67
2022-09-25T12:19:37.519Z,973.66
2022-09-25T12:20:38.497Z,973.75
2022-09-25T12:21:37.489Z,973.75
2022-09-25T12:22:37.468Z,973.77
2022-09-25T12:23:37.452Z,973.83
2022-09-25T12:24:38.450Z,973.76
2022-09-25T12:25:37.418Z,973.84
2022-09-25T12:26:37.418Z,973.80
2022-09-25T12:27:37.410Z,973.87
2022-09-25T12:28:37.389Z,973.87
2022-09-25T12:29:38.377Z,973.79
2022-09-25T12:30:37.397Z,973.80
2022-09-25T12:31:38.474Z,973.85
2022-09-25T12:32:38.388Z,973.84
2022-09-25T12:33:37.439Z,973.83
2022-09-25T12:34:37.364Z,973.81
2022-09-25T12:35:37.393Z,973.87
2022-09-25T12:36:37.362Z,973.94
2022-09-25T12:37:37.290Z,973.90
2022-09-25T12:38:37.266Z,973.88
2022-09-25T12:39:37.253Z,973.78
2022-09-25T12:40:37.361Z,973.83
2022-09-25T12:41:37.233Z,973.79
2022-09-25T12:42:37.212Z,973.80
2022-09-25T12:43:37.204Z,973.77
2022-09-25T12:44:37.204Z,973.71
2022-09-25T12:45:37.315Z,973.74
2022-09-25T12:46:37.152Z,973.77
2022-09-25T12:47:37.144Z,973.80
2022-09-25T12:48:37.234Z,973.82
2022-09-25T12:49:37.174Z,973.80
2022-09-25T12:50:37.174Z,973.84
2022-09-25T12:51:37.089Z,973.84
2022-09-25T12:52:37.156Z,973.89
2022-09-25T12:53:37.074Z,973.88
2022-09-25T12:54:40.605Z,973.87
2022-09-25T12:55:37.074Z,973.80
2022-09-25T12:56:37.083Z,973.78
2022-09-25T12:57:37.104Z,973.77
2022-09-25T12:58:36.996Z,973.85
2022-09-25T12:59:37.106Z,973.79
2022-09-25T13:00:38.064Z,973.76
2022-09-25T13:01:37.137Z,973.80